sensor_id;sensor_type;location;lat;lon;timestamp;P1;durP1;ratioP1;P2;durP2;ratioP2
30539;SDS011;17321;46.312;4.776;2022-08-14T00:01:06;2.78;;;0.55;;
30539;SDS011;17321;46.312;4.776;2022-08-14T00:03:32;1.90;;;0.60;;
30539;SDS011;17321;46.312;4.776;2022-08-14T00:05:59;9.75;;;4.40;;
30539;SDS011;17321;46.312;4.776;2022-08-14T00:08:25;9.93;;;3.17;;
30539;SDS011;17321;46.312;4.776;2022-08-14T00:10:51;7.85;;;2.80;;
30539;SDS011;17321;46.312;4.776;2022-08-14T00:13:19;3.92;;;1.40;;
30539;SDS011;17321;46.312;4.776;2022-08-14T00:15:46;2.13;;;0.50;;
30539;SDS011;17321;46.312;4.776;2022-08-14T00:18:21;2.35;;;0.68;;
30539;SDS011;17321;46.312;4.776;2022-08-14T00:20:47;1.75;;;0.60;;
30539;SDS011;17321;46.312;4.776;2022-08-14T00:23:14;0.70;;;0.40;;
30539;SDS011;17321;46.312;4.776;2022-08-14T00:25:41;6.47;;;0.50;;
30539;SDS011;17321;46.312;4.776;2022-08-14T00:28:12;1.13;;;0.50;;
30539;SDS011;17321;46.312;4.776;2022-08-14T00:30:39;0.40;;;0.30;;
30539;SDS011;17321;46.312;4.776;2022-08-14T00:33:05;2.35;;;0.60;;
30539;SDS011;17321;46.312;4.776;2022-08-14T00:35:31;3.92;;;0.50;;
30539;SDS011;17321;46.312;4.776;2022-08-14T00:37:58;1.75;;;0.65;;
30539;SDS011;17321;46.312;4.776;2022-08-14T00:40:24;3.13;;;1.08;;
30539;SDS011;17321;46.312;4.776;2022-08-14T00:42:50;1.75;;;0.65;;
30539;SDS011;17321;46.312;4.776;2022-08-14T00:45:17;0.52;;;0.47;;
30539;SDS011;17321;46.312;4.776;2022-08-14T00:47:45;3.15;;;0.60;;
30539;SDS011;17321;46.312;4.776;2022-08-14T00:50:13;1.48;;;0.60;;
30539;SDS011;17321;46.312;4.776;2022-08-14T00:52:40;1.63;;;0.57;;
30539;SDS011;17321;46.312;4.776;2022-08-14T00:55:07;2.25;;;1.00;;
30539;SDS011;17321;46.312;4.776;2022-08-14T00:57:34;0.65;;;0.55;;
30539;SDS011;17321;46.312;4.776;2022-08-14T01:00:03;2.15;;;0.50;;
30539;SDS011;17321;46.312;4.776;2022-08-14T01:02:29;0.40;;;0.40;;
30539;SDS011;17321;46.312;4.776;2022-08-14T01:04:57;4.70;;;0.70;;
30539;SDS011;17321;46.312;4.776;2022-08-14T01:07:24;3.13;;;0.75;;
30539;SDS011;17321;46.312;4.776;2022-08-14T01:09:51;2.35;;;0.60;;
30539;SDS011;17321;46.312;4.776;2022-08-14T01:12:18;0.82;;;0.55;;
30539;SDS011;17321;46.312;4.776;2022-08-14T01:14:45;2.05;;;0.60;;
30539;SDS011;17321;46.312;4.776;2022-08-14T01:17:11;0.30;;;0.30;;
30539;SDS011;17321;46.312;4.776;2022-08-14T01:19:37;0.60;;;0.50;;
30539;SDS011;17321;46.312;4.776;2022-08-14T01:22:22;1.90;;;0.85;;
30539;SDS011;17321;46.312;4.776;2022-08-14T01:24:48;4.05;;;0.68;;
30539;SDS011;17321;46.312;4.776;2022-08-14T01:27:15;0.52;;;0.45;;
30539;SDS011;17321;46.312;4.776;2022-08-14T01:29:43;0.88;;;0.40;;
30539;SDS011;17321;46.312;4.776;2022-08-14T01:32:09;5.38;;;0.68;;
30539;SDS011;17321;46.312;4.776;2022-08-14T01:34:36;2.13;;;0.60;;
30539;SDS011;17321;46.312;4.776;2022-08-14T01:37:03;2.45;;;0.40;;
30539;SDS011;17321;46.312;4.776;2022-08-14T01:39:30;4.85;;;0.50;;
30539;SDS011;17321;46.312;4.776;2022-08-14T01:41:56;6.53;;;0.68;;
30539;SDS011;17321;46.312;4.776;2022-08-14T01:44:25;3.88;;;0.60;;
30539;SDS011;17321;46.312;4.776;2022-08-14T01:46:54;6.38;;;0.80;;
30539;SDS011;17321;46.312;4.776;2022-08-14T01:49:21;1.00;;;0.43;;
30539;SDS011;17321;46.312;4.776;2022-08-14T01:51:48;1.35;;;0.60;;
30539;SDS011;17321;46.312;4.776;2022-08-14T01:54:18;2.17;;;0.68;;
30539;SDS011;17321;46.312;4.776;2022-08-14T01:56:45;2.67;;;0.68;;
30539;SDS011;17321;46.312;4.776;2022-08-14T02:04:07;0.63;;;0.55;;
30539;SDS011;17321;46.312;4.776;2022-08-14T02:06:34;2.13;;;0.93;;
30539;SDS011;17321;46.312;4.776;2022-08-14T02:09:03;4.93;;;1.00;;
30539;SDS011;17321;46.312;4.776;2022-08-14T02:11:29;1.00;;;0.70;;
30539;SDS011;17321;46.312;4.776;2022-08-14T02:13:59;3.08;;;0.70;;
30539;SDS011;17321;46.312;4.776;2022-08-14T02:16:28;3.33;;;0.80;;
30539;SDS011;17321;46.312;4.776;2022-08-14T02:18:58;6.05;;;1.45;;
30539;SDS011;17321;46.312;4.776;2022-08-14T02:21:25;2.78;;;1.77;;
30539;SDS011;17321;46.312;4.776;2022-08-14T02:23:52;3.35;;;1.02;;
30539;SDS011;17321;46.312;4.776;2022-08-14T02:26:20;1.75;;;1.00;;
30539;SDS011;17321;46.312;4.776;2022-08-14T02:28:47;2.50;;;0.70;;
30539;SDS011;17321;46.312;4.776;2022-08-14T02:31:15;6.57;;;1.00;;
30539;SDS011;17321;46.312;4.776;2022-08-14T02:33:41;2.00;;;1.27;;
30539;SDS011;17321;46.312;4.776;2022-08-14T02:36:08;2.42;;;1.00;;
30539;SDS011;17321;46.312;4.776;2022-08-14T02:38:35;2.75;;;1.00;;
30539;SDS011;17321;46.312;4.776;2022-08-14T02:41:02;1.52;;;1.25;;
30539;SDS011;17321;46.312;4.776;2022-08-14T02:43:29;6.03;;;1.42;;
30539;SDS011;17321;46.312;4.776;2022-08-14T02:45:56;4.30;;;0.77;;
30539;SDS011;17321;46.312;4.776;2022-08-14T02:48:22;1.48;;;0.70;;
30539;SDS011;17321;46.312;4.776;2022-08-14T02:50:55;1.23;;;1.02;;
30539;SDS011;17321;46.312;4.776;2022-08-14T02:53:21;1.60;;;0.90;;
30539;SDS011;17321;46.312;4.776;2022-08-14T02:55:47;2.45;;;0.70;;
30539;SDS011;17321;46.312;4.776;2022-08-14T02:58:13;3.25;;;0.80;;
30539;SDS011;17321;46.312;4.776;2022-08-14T03:00:39;7.45;;;1.17;;
30539;SDS011;17321;46.312;4.776;2022-08-14T03:03:07;8.23;;;1.02;;
30539;SDS011;17321;46.312;4.776;2022-08-14T03:05:33;1.27;;;0.90;;
30539;SDS011;17321;46.312;4.776;2022-08-14T03:08:06;0.70;;;0.70;;
30539;SDS011;17321;46.312;4.776;2022-08-14T03:10:33;0.60;;;0.60;;
30539;SDS011;17321;46.312;4.776;2022-08-14T03:12:59;0.73;;;0.60;;
30539;SDS011;17321;46.312;4.776;2022-08-14T03:17:54;3.25;;;0.80;;
30539;SDS011;17321;46.312;4.776;2022-08-14T03:20:20;1.02;;;0.90;;
30539;SDS011;17321;46.312;4.776;2022-08-14T03:22:46;4.63;;;1.00;;
30539;SDS011;17321;46.312;4.776;2022-08-14T03:25:12;3.75;;;0.70;;
30539;SDS011;17321;46.312;4.776;2022-08-14T03:27:38;1.67;;;0.82;;
30539;SDS011;17321;46.312;4.776;2022-08-14T03:30:05;1.95;;;0.68;;
30539;SDS011;17321;46.312;4.776;2022-08-14T03:32:32;1.70;;;0.80;;
30539;SDS011;17321;46.312;4.776;2022-08-14T03:34:58;1.50;;;0.80;;
30539;SDS011;17321;46.312;4.776;2022-08-14T03:37:24;1.83;;;0.60;;
30539;SDS011;17321;46.312;4.776;2022-08-14T03:39:51;3.53;;;0.60;;
30539;SDS011;17321;46.312;4.776;2022-08-14T03:42:17;1.00;;;0.70;;
30539;SDS011;17321;46.312;4.776;2022-08-14T03:44:43;5.22;;;0.90;;
30539;SDS011;17321;46.312;4.776;2022-08-14T03:47:10;5.22;;;0.50;;
30539;SDS011;17321;46.312;4.776;2022-08-14T03:49:36;0.60;;;0.60;;
30539;SDS011;17321;46.312;4.776;2022-08-14T03:52:03;1.00;;;0.70;;
30539;SDS011;17321;46.312;4.776;2022-08-14T03:54:29;3.83;;;0.70;;
30539;SDS011;17321;46.312;4.776;2022-08-14T03:56:58;5.32;;;1.00;;
30539;SDS011;17321;46.312;4.776;2022-08-14T03:59:25;2.80;;;0.80;;
30539;SDS011;17321;46.312;4.776;2022-08-14T04:01:52;2.05;;;0.80;;
30539;SDS011;17321;46.312;4.776;2022-08-14T04:04:18;8.93;;;1.02;;
30539;SDS011;17321;46.312;4.776;2022-08-14T04:06:44;2.35;;;0.65;;
30539;SDS011;17321;46.312;4.776;2022-08-14T04:09:10;3.65;;;0.80;;
30539;SDS011;17321;46.312;4.776;2022-08-14T04:11:36;14.63;;;1.17;;
30539;SDS011;17321;46.312;4.776;2022-08-14T04:14:03;4.22;;;0.80;;
30539;SDS011;17321;46.312;4.776;2022-08-14T04:16:30;7.70;;;0.82;;
30539;SDS011;17321;46.312;4.776;2022-08-14T04:18:57;2.40;;;0.60;;
30539;SDS011;17321;46.312;4.776;2022-08-14T04:21:24;5.63;;;0.85;;
30539;SDS011;17321;46.312;4.776;2022-08-14T04:23:52;1.75;;;0.80;;
30539;SDS011;17321;46.312;4.776;2022-08-14T04:26:19;2.55;;;0.70;;
30539;SDS011;17321;46.312;4.776;2022-08-14T04:28:46;1.05;;;0.90;;
30539;SDS011;17321;46.312;4.776;2022-08-14T04:31:13;0.40;;;0.40;;
30539;SDS011;17321;46.312;4.776;2022-08-14T04:33:40;5.15;;;1.98;;
30539;SDS011;17321;46.312;4.776;2022-08-14T04:36:06;5.18;;;1.42;;
30539;SDS011;17321;46.312;4.776;2022-08-14T04:38:32;11.35;;;1.92;;
30539;SDS011;17321;46.312;4.776;2022-08-14T04:41:17;14.32;;;2.08;;
30539;SDS011;17321;46.312;4.776;2022-08-14T04:44:02;21.88;;;3.72;;
30539;SDS011;17321;46.312;4.776;2022-08-14T04:46:29;25.10;;;3.83;;
30539;SDS011;17321;46.312;4.776;2022-08-14T04:48:55;26.58;;;4.20;;
30539;SDS011;17321;46.312;4.776;2022-08-14T04:51:21;26.60;;;4.20;;
30539;SDS011;17321;46.312;4.776;2022-08-14T04:53:52;19.58;;;4.07;;
30539;SDS011;17321;46.312;4.776;2022-08-14T04:56:20;17.67;;;3.80;;
30539;SDS011;17321;46.312;4.776;2022-08-14T04:58:47;23.63;;;3.83;;
30539;SDS011;17321;46.312;4.776;2022-08-14T05:01:13;22.80;;;3.95;;
30539;SDS011;17321;46.312;4.776;2022-08-14T05:03:40;24.38;;;3.72;;
30539;SDS011;17321;46.312;4.776;2022-08-14T05:06:08;19.58;;;4.15;;
30539;SDS011;17321;46.312;4.776;2022-08-14T05:08:35;16.42;;;3.95;;
30539;SDS011;17321;46.312;4.776;2022-08-14T05:11:02;17.02;;;4.07;;
30539;SDS011;17321;46.312;4.776;2022-08-14T05:13:30;19.77;;;4.47;;
30539;SDS011;17321;46.312;4.776;2022-08-14T05:15:57;16.92;;;3.90;;
30539;SDS011;17321;46.312;4.776;2022-08-14T05:18:25;12.15;;;3.50;;
30539;SDS011;17321;46.312;4.776;2022-08-14T05:20:52;47.25;;;4.47;;
30539;SDS011;17321;46.312;4.776;2022-08-14T05:23:20;24.60;;;3.67;;
30539;SDS011;17321;46.312;4.776;2022-08-14T05:25:47;18.70;;;3.90;;
30539;SDS011;17321;46.312;4.776;2022-08-14T05:28:15;19.02;;;4.85;;
30539;SDS011;17321;46.312;4.776;2022-08-14T05:30:43;22.60;;;4.47;;
30539;SDS011;17321;46.312;4.776;2022-08-14T05:33:10;21.08;;;4.35;;
30539;SDS011;17321;46.312;4.776;2022-08-14T05:35:37;14.95;;;4.60;;
30539;SDS011;17321;46.312;4.776;2022-08-14T05:38:10;16.30;;;4.05;;
30539;SDS011;17321;46.312;4.776;2022-08-14T05:40:38;15.27;;;4.65;;
30539;SDS011;17321;46.312;4.776;2022-08-14T05:43:04;17.23;;;4.85;;
30539;SDS011;17321;46.312;4.776;2022-08-14T05:45:31;17.45;;;4.05;;
30539;SDS011;17321;46.312;4.776;2022-08-14T05:47:59;16.80;;;4.47;;
30539;SDS011;17321;46.312;4.776;2022-08-14T05:50:26;11.73;;;4.70;;
30539;SDS011;17321;46.312;4.776;2022-08-14T05:52:52;12.85;;;4.25;;
30539;SDS011;17321;46.312;4.776;2022-08-14T05:55:19;14.52;;;4.28;;
30539;SDS011;17321;46.312;4.776;2022-08-14T05:57:46;21.33;;;5.28;;
30539;SDS011;17321;46.312;4.776;2022-08-14T06:00:13;12.52;;;4.45;;
30539;SDS011;17321;46.312;4.776;2022-08-14T06:02:39;16.17;;;4.13;;
30539;SDS011;17321;46.312;4.776;2022-08-14T06:05:05;16.50;;;4.28;;
30539;SDS011;17321;46.312;4.776;2022-08-14T06:07:34;9.25;;;4.15;;
30539;SDS011;17321;46.312;4.776;2022-08-14T06:10:00;9.98;;;4.40;;
30539;SDS011;17321;46.312;4.776;2022-08-14T06:12:26;10.20;;;4.60;;
30539;SDS011;17321;46.312;4.776;2022-08-14T06:14:52;15.85;;;4.90;;
30539;SDS011;17321;46.312;4.776;2022-08-14T06:17:19;18.75;;;4.35;;
30539;SDS011;17321;46.312;4.776;2022-08-14T06:19:45;17.83;;;4.70;;
30539;SDS011;17321;46.312;4.776;2022-08-14T06:22:11;12.23;;;4.80;;
30539;SDS011;17321;46.312;4.776;2022-08-14T06:24:37;18.98;;;4.40;;
30539;SDS011;17321;46.312;4.776;2022-08-14T06:27:03;21.67;;;5.15;;
30539;SDS011;17321;46.312;4.776;2022-08-14T06:29:30;12.60;;;4.53;;
30539;SDS011;17321;46.312;4.776;2022-08-14T06:31:56;12.45;;;4.40;;
30539;SDS011;17321;46.312;4.776;2022-08-14T06:34:22;19.75;;;4.38;;
30539;SDS011;17321;46.312;4.776;2022-08-14T06:36:48;19.00;;;4.65;;
30539;SDS011;17321;46.312;4.776;2022-08-14T06:39:14;19.45;;;5.38;;
30539;SDS011;17321;46.312;4.776;2022-08-14T06:41:41;16.48;;;4.22;;
30539;SDS011;17321;46.312;4.776;2022-08-14T06:44:07;14.50;;;4.60;;
30539;SDS011;17321;46.312;4.776;2022-08-14T06:46:34;14.93;;;4.03;;
30539;SDS011;17321;46.312;4.776;2022-08-14T06:49:00;18.48;;;3.95;;
30539;SDS011;17321;46.312;4.776;2022-08-14T06:51:26;16.52;;;4.47;;
30539;SDS011;17321;46.312;4.776;2022-08-14T06:53:52;15.63;;;4.30;;
30539;SDS011;17321;46.312;4.776;2022-08-14T06:56:19;10.75;;;4.55;;
30539;SDS011;17321;46.312;4.776;2022-08-14T06:58:46;14.07;;;3.78;;
30539;SDS011;17321;46.312;4.776;2022-08-14T07:01:12;11.43;;;4.13;;
30539;SDS011;17321;46.312;4.776;2022-08-14T07:03:57;13.82;;;4.03;;
30539;SDS011;17321;46.312;4.776;2022-08-14T07:06:41;6.97;;;3.03;;
30539;SDS011;17321;46.312;4.776;2022-08-14T07:09:10;12.40;;;4.28;;
30539;SDS011;17321;46.312;4.776;2022-08-14T07:11:36;12.82;;;4.28;;
30539;SDS011;17321;46.312;4.776;2022-08-14T07:14:03;12.65;;;4.05;;
30539;SDS011;17321;46.312;4.776;2022-08-14T07:16:29;13.93;;;4.55;;
30539;SDS011;17321;46.312;4.776;2022-08-14T07:18:55;11.13;;;3.85;;
30539;SDS011;17321;46.312;4.776;2022-08-14T07:21:22;16.40;;;4.75;;
30539;SDS011;17321;46.312;4.776;2022-08-14T07:23:48;16.73;;;4.20;;
30539;SDS011;17321;46.312;4.776;2022-08-14T07:26:14;16.55;;;4.85;;
30539;SDS011;17321;46.312;4.776;2022-08-14T07:28:41;15.80;;;4.47;;
30539;SDS011;17321;46.312;4.776;2022-08-14T07:31:08;17.52;;;5.25;;
30539;SDS011;17321;46.312;4.776;2022-08-14T07:33:36;15.07;;;5.30;;
30539;SDS011;17321;46.312;4.776;2022-08-14T07:36:04;15.68;;;4.18;;
30539;SDS011;17321;46.312;4.776;2022-08-14T07:38:30;18.17;;;4.47;;
30539;SDS011;17321;46.312;4.776;2022-08-14T07:40:56;14.77;;;4.68;;
30539;SDS011;17321;46.312;4.776;2022-08-14T07:43:24;26.02;;;6.10;;
30539;SDS011;17321;46.312;4.776;2022-08-14T07:45:50;24.23;;;5.65;;
30539;SDS011;17321;46.312;4.776;2022-08-14T07:48:16;15.57;;;5.97;;
30539;SDS011;17321;46.312;4.776;2022-08-14T07:50:42;16.52;;;5.30;;
30539;SDS011;17321;46.312;4.776;2022-08-14T07:53:09;18.50;;;5.65;;
30539;SDS011;17321;46.312;4.776;2022-08-14T07:55:36;16.13;;;5.60;;
30539;SDS011;17321;46.312;4.776;2022-08-14T07:58:02;15.57;;;5.78;;
30539;SDS011;17321;46.312;4.776;2022-08-14T08:00:28;16.25;;;5.03;;
30539;SDS011;17321;46.312;4.776;2022-08-14T08:02:55;19.80;;;5.75;;
30539;SDS011;17321;46.312;4.776;2022-08-14T08:05:23;20.58;;;6.22;;
30539;SDS011;17321;46.312;4.776;2022-08-14T08:07:50;19.58;;;7.20;;
30539;SDS011;17321;46.312;4.776;2022-08-14T08:10:18;15.15;;;5.72;;
30539;SDS011;17321;46.312;4.776;2022-08-14T08:15:26;29.42;;;8.10;;
30539;SDS011;17321;46.312;4.776;2022-08-14T08:17:54;15.03;;;6.93;;
30539;SDS011;17321;46.312;4.776;2022-08-14T08:20:21;13.82;;;6.57;;
30539;SDS011;17321;46.312;4.776;2022-08-14T08:22:51;13.77;;;6.38;;
30539;SDS011;17321;46.312;4.776;2022-08-14T08:25:20;18.33;;;7.13;;
30539;SDS011;17321;46.312;4.776;2022-08-14T08:27:53;15.00;;;6.03;;
30539;SDS011;17321;46.312;4.776;2022-08-14T08:30:19;14.20;;;6.22;;
30539;SDS011;17321;46.312;4.776;2022-08-14T08:32:45;16.83;;;7.25;;
30539;SDS011;17321;46.312;4.776;2022-08-14T08:35:16;16.25;;;7.03;;
30539;SDS011;17321;46.312;4.776;2022-08-14T08:37:42;19.90;;;8.15;;
30539;SDS011;17321;46.312;4.776;2022-08-14T08:40:09;19.58;;;7.65;;
30539;SDS011;17321;46.312;4.776;2022-08-14T08:42:35;19.15;;;7.57;;
30539;SDS011;17321;46.312;4.776;2022-08-14T08:45:01;15.23;;;7.85;;
30539;SDS011;17321;46.312;4.776;2022-08-14T08:47:37;18.30;;;7.82;;
30539;SDS011;17321;46.312;4.776;2022-08-14T08:50:13;15.10;;;7.07;;
30539;SDS011;17321;46.312;4.776;2022-08-14T08:52:46;16.40;;;7.28;;
30539;SDS011;17321;46.312;4.776;2022-08-14T08:55:13;14.65;;;6.50;;
30539;SDS011;17321;46.312;4.776;2022-08-14T08:57:40;14.90;;;6.82;;
30539;SDS011;17321;46.312;4.776;2022-08-14T09:00:14;19.38;;;7.50;;
30539;SDS011;17321;46.312;4.776;2022-08-14T09:02:56;16.10;;;7.57;;
30539;SDS011;17321;46.312;4.776;2022-08-14T09:05:23;20.92;;;8.70;;
30539;SDS011;17321;46.312;4.776;2022-08-14T09:07:49;16.92;;;7.82;;
30539;SDS011;17321;46.312;4.776;2022-08-14T09:10:15;17.05;;;7.95;;
30539;SDS011;17321;46.312;4.776;2022-08-14T09:12:42;18.23;;;7.50;;
30539;SDS011;17321;46.312;4.776;2022-08-14T09:15:08;17.63;;;7.22;;
30539;SDS011;17321;46.312;4.776;2022-08-14T09:17:34;19.65;;;7.13;;
30539;SDS011;17321;46.312;4.776;2022-08-14T09:20:01;14.27;;;7.32;;
30539;SDS011;17321;46.312;4.776;2022-08-14T09:22:29;16.73;;;8.48;;
30539;SDS011;17321;46.312;4.776;2022-08-14T09:24:55;14.90;;;7.32;;
30539;SDS011;17321;46.312;4.776;2022-08-14T09:27:22;12.65;;;6.90;;
30539;SDS011;17321;46.312;4.776;2022-08-14T09:29:48;10.88;;;6.07;;
30539;SDS011;17321;46.312;4.776;2022-08-14T09:32:21;17.80;;;8.10;;
30539;SDS011;17321;46.312;4.776;2022-08-14T09:34:51;18.05;;;9.23;;
30539;SDS011;17321;46.312;4.776;2022-08-14T09:45:06;10.50;;;6.47;;
30539;SDS011;17321;46.312;4.776;2022-08-14T09:47:51;16.38;;;7.32;;
30539;SDS011;17321;46.312;4.776;2022-08-14T09:50:18;12.60;;;7.65;;
30539;SDS011;17321;46.312;4.776;2022-08-14T09:52:50;11.80;;;6.72;;
30539;SDS011;17321;46.312;4.776;2022-08-14T09:55:17;13.13;;;6.32;;
30539;SDS011;17321;46.312;4.776;2022-08-14T09:57:43;9.68;;;6.10;;
30539;SDS011;17321;46.312;4.776;2022-08-14T10:00:12;13.13;;;6.40;;
30539;SDS011;17321;46.312;4.776;2022-08-14T10:02:38;9.25;;;5.60;;
30539;SDS011;17321;46.312;4.776;2022-08-14T10:07:49;7.70;;;5.68;;
30539;SDS011;17321;46.312;4.776;2022-08-14T10:13:21;12.35;;;5.88;;
30539;SDS011;17321;46.312;4.776;2022-08-14T10:15:48;7.55;;;5.72;;
30539;SDS011;17321;46.312;4.776;2022-08-14T10:18:16;13.85;;;6.05;;
30539;SDS011;17321;46.312;4.776;2022-08-14T10:20:53;10.68;;;6.70;;
30539;SDS011;17321;46.312;4.776;2022-08-14T10:23:22;7.07;;;5.43;;
30539;SDS011;17321;46.312;4.776;2022-08-14T10:25:49;11.38;;;5.68;;
30539;SDS011;17321;46.312;4.776;2022-08-14T10:28:19;8.10;;;5.93;;
30539;SDS011;17321;46.312;4.776;2022-08-14T10:30:46;10.52;;;5.38;;
30539;SDS011;17321;46.312;4.776;2022-08-14T10:33:25;8.63;;;5.57;;
30539;SDS011;17321;46.312;4.776;2022-08-14T10:35:51;15.82;;;6.47;;
30539;SDS011;17321;46.312;4.776;2022-08-14T10:38:29;9.27;;;5.38;;
30539;SDS011;17321;46.312;4.776;2022-08-14T10:41:07;8.98;;;5.03;;
30539;SDS011;17321;46.312;4.776;2022-08-14T10:43:34;8.07;;;4.65;;
30539;SDS011;17321;46.312;4.776;2022-08-14T10:46:00;7.30;;;4.28;;
30539;SDS011;17321;46.312;4.776;2022-08-14T10:48:27;9.50;;;5.00;;
30539;SDS011;17321;46.312;4.776;2022-08-14T10:50:53;10.35;;;5.30;;
30539;SDS011;17321;46.312;4.776;2022-08-14T10:53:28;8.38;;;5.25;;
30539;SDS011;17321;46.312;4.776;2022-08-14T10:55:58;8.63;;;4.57;;
30539;SDS011;17321;46.312;4.776;2022-08-14T10:58:28;6.38;;;4.47;;
30539;SDS011;17321;46.312;4.776;2022-08-14T11:00:57;4.90;;;4.40;;
30539;SDS011;17321;46.312;4.776;2022-08-14T11:03:35;5.68;;;4.25;;
30539;SDS011;17321;46.312;4.776;2022-08-14T11:06:09;9.38;;;4.97;;
30539;SDS011;17321;46.312;4.776;2022-08-14T11:08:38;5.00;;;4.30;;
30539;SDS011;17321;46.312;4.776;2022-08-14T11:11:05;7.63;;;4.25;;
30539;SDS011;17321;46.312;4.776;2022-08-14T11:13:31;5.38;;;4.05;;
30539;SDS011;17321;46.312;4.776;2022-08-14T11:15:58;8.45;;;4.47;;
30539;SDS011;17321;46.312;4.776;2022-08-14T11:18:25;9.38;;;4.10;;
30539;SDS011;17321;46.312;4.776;2022-08-14T11:20:52;4.50;;;3.65;;
30539;SDS011;17321;46.312;4.776;2022-08-14T11:23:20;5.43;;;3.67;;
30539;SDS011;17321;46.312;4.776;2022-08-14T11:25:47;9.15;;;4.47;;
30539;SDS011;17321;46.312;4.776;2022-08-14T11:28:14;4.75;;;4.18;;
30539;SDS011;17321;46.312;4.776;2022-08-14T11:30:43;9.32;;;4.50;;
30539;SDS011;17321;46.312;4.776;2022-08-14T11:35:35;7.88;;;5.22;;
30539;SDS011;17321;46.312;4.776;2022-08-14T11:38:04;10.23;;;5.22;;
30539;SDS011;17321;46.312;4.776;2022-08-14T11:40:32;7.22;;;4.95;;
30539;SDS011;17321;46.312;4.776;2022-08-14T11:43:02;5.70;;;4.38;;
30539;SDS011;17321;46.312;4.776;2022-08-14T11:45:29;6.32;;;4.68;;
30539;SDS011;17321;46.312;4.776;2022-08-14T11:48:00;7.10;;;4.75;;
30539;SDS011;17321;46.312;4.776;2022-08-14T11:50:27;6.03;;;4.28;;
30539;SDS011;17321;46.312;4.776;2022-08-14T11:52:55;5.03;;;3.40;;
30539;SDS011;17321;46.312;4.776;2022-08-14T11:55:23;7.38;;;3.20;;
30539;SDS011;17321;46.312;4.776;2022-08-14T11:57:58;7.18;;;3.78;;
30539;SDS011;17321;46.312;4.776;2022-08-14T12:00:25;5.90;;;3.90;;
30539;SDS011;17321;46.312;4.776;2022-08-14T12:02:52;5.38;;;3.70;;
30539;SDS011;17321;46.312;4.776;2022-08-14T12:05:35;3.75;;;3.22;;
30539;SDS011;17321;46.312;4.776;2022-08-14T12:08:04;7.53;;;2.90;;
30539;SDS011;17321;46.312;4.776;2022-08-14T12:10:34;7.15;;;2.50;;
30539;SDS011;17321;46.312;4.776;2022-08-14T12:13:10;5.93;;;2.72;;
30539;SDS011;17321;46.312;4.776;2022-08-14T12:15:38;3.65;;;2.67;;
30539;SDS011;17321;46.312;4.776;2022-08-14T12:18:05;6.03;;;2.72;;
30539;SDS011;17321;46.312;4.776;2022-08-14T12:20:33;4.15;;;2.00;;
30539;SDS011;17321;46.312;4.776;2022-08-14T12:23:02;3.78;;;2.70;;
30539;SDS011;17321;46.312;4.776;2022-08-14T12:25:29;4.00;;;2.40;;
30539;SDS011;17321;46.312;4.776;2022-08-14T12:27:56;4.13;;;2.40;;
30539;SDS011;17321;46.312;4.776;2022-08-14T12:30:29;5.15;;;2.30;;
30539;SDS011;17321;46.312;4.776;2022-08-14T12:32:57;6.90;;;2.40;;
30539;SDS011;17321;46.312;4.776;2022-08-14T12:35:34;7.22;;;3.15;;
30539;SDS011;17321;46.312;4.776;2022-08-14T12:38:00;7.65;;;2.35;;
30539;SDS011;17321;46.312;4.776;2022-08-14T12:40:28;3.38;;;2.28;;
30539;SDS011;17321;46.312;4.776;2022-08-14T12:43:02;3.55;;;1.77;;
30539;SDS011;17321;46.312;4.776;2022-08-14T12:45:29;3.85;;;1.63;;
30539;SDS011;17321;46.312;4.776;2022-08-14T12:48:00;4.57;;;1.83;;
30539;SDS011;17321;46.312;4.776;2022-08-14T12:50:33;5.40;;;2.28;;
30539;SDS011;17321;46.312;4.776;2022-08-14T12:52:59;3.80;;;1.83;;
30539;SDS011;17321;46.312;4.776;2022-08-14T12:55:26;5.70;;;1.52;;
30539;SDS011;17321;46.312;4.776;2022-08-14T12:57:52;3.15;;;1.83;;
30539;SDS011;17321;46.312;4.776;2022-08-14T13:00:20;4.80;;;1.48;;
30539;SDS011;17321;46.312;4.776;2022-08-14T13:02:47;6.07;;;1.83;;
30539;SDS011;17321;46.312;4.776;2022-08-14T13:05:15;5.97;;;2.55;;
30539;SDS011;17321;46.312;4.776;2022-08-14T13:07:41;2.85;;;1.85;;
30539;SDS011;17321;46.312;4.776;2022-08-14T13:10:08;3.22;;;1.50;;
30539;SDS011;17321;46.312;4.776;2022-08-14T13:12:38;4.13;;;2.13;;
30539;SDS011;17321;46.312;4.776;2022-08-14T13:15:05;5.25;;;1.55;;
30539;SDS011;17321;46.312;4.776;2022-08-14T13:17:32;2.83;;;1.55;;
30539;SDS011;17321;46.312;4.776;2022-08-14T13:20:01;5.82;;;1.55;;
30539;SDS011;17321;46.312;4.776;2022-08-14T13:22:28;4.63;;;1.60;;
30539;SDS011;17321;46.312;4.776;2022-08-14T13:24:54;3.67;;;1.80;;
30539;SDS011;17321;46.312;4.776;2022-08-14T13:27:23;5.32;;;1.80;;
30539;SDS011;17321;46.312;4.776;2022-08-14T13:29:50;3.83;;;1.73;;
30539;SDS011;17321;46.312;4.776;2022-08-14T13:32:17;3.22;;;1.73;;
30539;SDS011;17321;46.312;4.776;2022-08-14T13:34:47;5.50;;;2.13;;
30539;SDS011;17321;46.312;4.776;2022-08-14T13:37:14;3.60;;;1.85;;
30539;SDS011;17321;46.312;4.776;2022-08-14T13:39:45;4.53;;;1.85;;
30539;SDS011;17321;46.312;4.776;2022-08-14T13:42:12;4.95;;;2.17;;
30539;SDS011;17321;46.312;4.776;2022-08-14T13:44:39;4.97;;;1.50;;
30539;SDS011;17321;46.312;4.776;2022-08-14T13:47:05;4.95;;;1.83;;
30539;SDS011;17321;46.312;4.776;2022-08-14T13:49:32;3.13;;;1.52;;
30539;SDS011;17321;46.312;4.776;2022-08-14T13:51:59;4.15;;;2.00;;
30539;SDS011;17321;46.312;4.776;2022-08-14T13:54:27;3.28;;;1.70;;
30539;SDS011;17321;46.312;4.776;2022-08-14T13:56:57;2.75;;;1.60;;
30539;SDS011;17321;46.312;4.776;2022-08-14T13:59:26;3.53;;;1.90;;
30539;SDS011;17321;46.312;4.776;2022-08-14T14:01:54;4.05;;;1.50;;
30539;SDS011;17321;46.312;4.776;2022-08-14T14:04:21;2.10;;;1.40;;
30539;SDS011;17321;46.312;4.776;2022-08-14T14:06:49;6.00;;;2.17;;
30539;SDS011;17321;46.312;4.776;2022-08-14T14:09:26;2.05;;;1.40;;
30539;SDS011;17321;46.312;4.776;2022-08-14T14:11:53;4.82;;;2.22;;
30539;SDS011;17321;46.312;4.776;2022-08-14T14:14:22;8.70;;;1.80;;
30539;SDS011;17321;46.312;4.776;2022-08-14T14:16:49;1.83;;;1.38;;
30539;SDS011;17321;46.312;4.776;2022-08-14T14:19:17;3.53;;;1.60;;
30539;SDS011;17321;46.312;4.776;2022-08-14T14:21:44;5.93;;;1.52;;
30539;SDS011;17321;46.312;4.776;2022-08-14T14:24:10;6.45;;;1.75;;
30539;SDS011;17321;46.312;4.776;2022-08-14T14:26:37;1.88;;;1.30;;
30539;SDS011;17321;46.312;4.776;2022-08-14T14:29:05;2.80;;;1.50;;
30539;SDS011;17321;46.312;4.776;2022-08-14T14:31:31;6.10;;;1.50;;
30539;SDS011;17321;46.312;4.776;2022-08-14T14:33:59;3.47;;;1.30;;
30539;SDS011;17321;46.312;4.776;2022-08-14T14:36:26;2.80;;;1.70;;
30539;SDS011;17321;46.312;4.776;2022-08-14T14:38:57;2.78;;;1.45;;
30539;SDS011;17321;46.312;4.776;2022-08-14T14:41:24;2.05;;;1.63;;
30539;SDS011;17321;46.312;4.776;2022-08-14T14:43:51;2.22;;;1.38;;
30539;SDS011;17321;46.312;4.776;2022-08-14T14:46:18;3.72;;;1.55;;
30539;SDS011;17321;46.312;4.776;2022-08-14T14:48:45;5.03;;;1.35;;
30539;SDS011;17321;46.312;4.776;2022-08-14T14:51:12;3.15;;;1.27;;
30539;SDS011;17321;46.312;4.776;2022-08-14T14:53:39;3.75;;;2.03;;
30539;SDS011;17321;46.312;4.776;2022-08-14T14:56:05;5.50;;;1.83;;
30539;SDS011;17321;46.312;4.776;2022-08-14T14:58:36;3.78;;;1.50;;
30539;SDS011;17321;46.312;4.776;2022-08-14T15:01:05;3.78;;;1.63;;
30539;SDS011;17321;46.312;4.776;2022-08-14T15:03:35;2.33;;;1.60;;
30539;SDS011;17321;46.312;4.776;2022-08-14T15:06:02;4.70;;;1.65;;
30539;SDS011;17321;46.312;4.776;2022-08-14T15:08:29;3.90;;;1.83;;
30539;SDS011;17321;46.312;4.776;2022-08-14T15:10:56;4.70;;;1.90;;
30539;SDS011;17321;46.312;4.776;2022-08-14T15:13:24;3.30;;;1.52;;